Terminal Aerodrome Forecast
Issued by NWS

Home | Current Version | Previous Version | Graphics & Text | Print | Product List | Glossary On
Versions: 1 2 3 4 5 6 7 8 9 10 11 12 13 14 15
000
FTUS43 KMPX 261120
TAFAXN
TAF
KAXN 261120Z 2612/2712 33011KT P6SM SCT030
     FM261800 34013G22KT P6SM SCT040
     FM270000 36008KT P6SM SKC
     FM270900 04003KT P6SM SKC=

USA.gov is the U.S. government's official web portal to all federal, state and local government web resources and services.